createdAt,value
2022-11-02T00:00:29.792Z,1007.78
2022-11-02T00:01:27.051Z,1007.78
2022-11-02T00:02:28.019Z,1007.76
2022-11-02T00:03:26.726Z,1007.78
2022-11-02T00:04:26.766Z,1007.77
2022-11-02T00:05:26.703Z,1007.76
2022-11-02T00:06:29.751Z,1007.77
2022-11-02T00:07:27.723Z,1007.73
2022-11-02T00:08:33.802Z,1007.74
2022-11-02T00:09:26.896Z,1007.72
2022-11-02T00:10:26.651Z,1007.73
2022-11-02T00:11:26.658Z,1007.69
2022-11-02T00:12:26.638Z,1007.71
2022-11-02T00:13:26.652Z,1007.64
2022-11-02T00:14:26.870Z,1007.69
2022-11-02T00:15:26.842Z,1007.65
2022-11-02T00:16:26.815Z,1007.62
2022-11-02T00:17:26.815Z,1007.65
2022-11-02T00:18:33.848Z,1007.64
2022-11-02T00:19:26.618Z,1007.62
2022-11-02T00:20:29.813Z,1007.62
2022-11-02T00:21:29.820Z,1007.66
2022-11-02T00:22:29.585Z,1007.65
2022-11-02T00:23:29.778Z,1007.70
2022-11-02T00:24:27.525Z,1007.65
2022-11-02T00:25:26.542Z,1007.68
2022-11-02T00:26:42.031Z,1007.66
2022-11-02T00:27:26.704Z,1007.70
2022-11-02T00:28:27.730Z,1007.66
2022-11-02T00:29:33.688Z,1007.68
2022-11-02T00:30:33.723Z,1007.69
2022-11-02T00:31:26.678Z,1007.66
2022-11-02T00:32:26.432Z,1007.71
2022-11-02T00:33:26.417Z,1007.68
2022-11-02T00:34:26.412Z,1007.70
2022-11-02T00:35:26.414Z,1007.69
2022-11-02T00:36:27.447Z,1007.73
2022-11-02T00:37:41.990Z,1007.66
2022-11-02T00:38:26.590Z,1007.71
2022-11-02T00:39:29.363Z,1007.69
2022-11-02T00:40:29.366Z,1007.74
2022-11-02T00:41:26.339Z,1007.77
2022-11-02T00:42:29.377Z,1007.77
2022-11-02T00:43:26.322Z,1007.71
2022-11-02T00:44:33.390Z,1007.67
2022-11-02T00:45:26.318Z,1007.71
2022-11-02T00:46:26.523Z,1007.71
2022-11-02T00:47:29.306Z,1007.72
2022-11-02T00:48:29.280Z,1007.72
2022-11-02T00:49:27.243Z,1007.73
2022-11-02T00:50:29.284Z,1007.69
2022-11-02T00:51:26.242Z,1007.76
2022-11-02T00:52:27.235Z,1007.78
2022-11-02T00:53:29.209Z,1007.81
2022-11-02T00:54:28.585Z,1007.77
2022-11-02T00:55:27.220Z,1007.81
2022-11-02T00:56:29.187Z,1007.79
2022-11-02T00:57:26.191Z,1007.77
2022-11-02T00:58:26.156Z,1007.73
2022-11-02T00:59:26.145Z,1007.70
2022-11-02T01:00:29.386Z,1007.69
2022-11-02T01:01:26.396Z,1007.68
2022-11-02T01:02:26.494Z,1007.70
2022-11-02T01:03:27.379Z,1007.64
2022-11-02T01:04:26.105Z,1007.59
2022-11-02T01:05:26.074Z,1007.66
2022-11-02T01:06:26.084Z,1007.63
2022-11-02T01:07:26.076Z,1007.65
2022-11-02T01:08:41.614Z,1007.64
2022-11-02T01:09:27.059Z,1007.64
2022-11-02T01:10:33.246Z,1007.68
2022-11-02T01:11:29.286Z,1007.57
2022-11-02T01:12:26.000Z,1007.57
2022-11-02T01:13:26.012Z,1007.52
2022-11-02T01:14:26.212Z,1007.53
2022-11-02T01:15:26.206Z,1007.51
2022-11-02T01:16:25.996Z,1007.49
2022-11-02T01:17:29.000Z,1007.49
2022-11-02T01:18:26.188Z,1007.47
2022-11-02T01:19:25.971Z,1007.48
2022-11-02T01:20:25.910Z,1007.51
2022-11-02T01:21:25.916Z,1007.54
2022-11-02T01:22:26.116Z,1007.50
2022-11-02T01:23:25.899Z,1007.57
2022-11-02T01:24:26.130Z,1007.54
2022-11-02T01:25:26.098Z,1007.62
2022-11-02T01:26:26.872Z,1007.62
2022-11-02T01:27:26.868Z,1007.57
2022-11-02T01:28:27.099Z,1007.60
2022-11-02T01:29:29.087Z,1007.58
2022-11-02T01:30:26.074Z,1007.52
2022-11-02T01:31:25.792Z,1007.49
2022-11-02T01:32:28.811Z,1007.45
2022-11-02T01:33:26.032Z,1007.45
2022-11-02T01:34:26.009Z,1007.43
2022-11-02T01:35:25.779Z,1007.44
2022-11-02T01:36:28.781Z,1007.43
2022-11-02T01:37:25.972Z,1007.45
2022-11-02T01:38:25.960Z,1007.43
2022-11-02T01:39:25.999Z,1007.44
2022-11-02T01:40:26.937Z,1007.41
2022-11-02T01:41:28.741Z,1007.39
2022-11-02T01:42:25.944Z,1007.43
2022-11-02T01:43:25.676Z,1007.44
2022-11-02T01:44:25.960Z,1007.48
2022-11-02T01:45:41.123Z,1007.43
2022-11-02T01:46:26.687Z,1007.48
2022-11-02T01:47:32.757Z,1007.48
2022-11-02T01:48:25.625Z,1007.43
2022-11-02T01:49:25.611Z,1007.43
2022-11-02T01:50:25.860Z,1007.41
2022-11-02T01:51:25.832Z,1007.43
2022-11-02T01:52:26.852Z,1007.45
2022-11-02T01:53:25.803Z,1007.35
2022-11-02T01:54:28.830Z,1007.37
2022-11-02T01:55:25.792Z,1007.39
2022-11-02T01:56:26.556Z,1007.37
2022-11-02T01:57:28.813Z,1007.42
2022-11-02T01:58:26.546Z,1007.44
2022-11-02T01:59:26.793Z,1007.51
2022-11-02T02:00:25.741Z,1007.47
2022-11-02T02:01:25.571Z,1007.47
2022-11-02T02:02:26.569Z,1007.50
2022-11-02T02:03:26.488Z,1007.40
2022-11-02T02:04:25.458Z,1007.36
2022-11-02T02:05:25.501Z,1007.41
2022-11-02T02:06:26.461Z,1007.45
2022-11-02T02:07:25.653Z,1007.41
2022-11-02T02:08:26.681Z,1007.42
2022-11-02T02:09:25.635Z,1007.45
2022-11-02T02:10:25.664Z,1007.48
2022-11-02T02:11:26.628Z,1007.43
2022-11-02T02:12:26.610Z,1007.47
2022-11-02T02:13:25.386Z,1007.47
2022-11-02T02:14:25.361Z,1007.52
2022-11-02T02:15:25.594Z,1007.46
2022-11-02T02:16:27.808Z,1007.51
2022-11-02T02:17:27.343Z,1007.51
2022-11-02T02:18:26.307Z,1007.49
2022-11-02T02:19:25.309Z,1007.50
2022-11-02T02:20:25.314Z,1007.48
2022-11-02T02:21:25.275Z,1007.49
2022-11-02T02:22:25.259Z,1007.49
2022-11-02T02:23:28.291Z,1007.47
2022-11-02T02:24:26.512Z,1007.41
2022-11-02T02:25:25.263Z,1007.42
2022-11-02T02:26:26.287Z,1007.40
2022-11-02T02:27:28.276Z,1007.34
2022-11-02T02:28:26.218Z,1007.37
2022-11-02T02:29:26.439Z,1007.38
2022-11-02T02:30:46.445Z,1007.36
2022-11-02T02:31:25.168Z,1007.29
2022-11-02T02:32:28.180Z,1007.35
2022-11-02T02:33:25.378Z,1007.33
2022-11-02T02:34:25.387Z,1007.40
2022-11-02T02:35:25.347Z,1007.35
2022-11-02T02:36:25.143Z,1007.31
2022-11-02T02:37:28.136Z,1007.32
2022-11-02T02:38:28.115Z,1007.27
2022-11-02T02:39:25.120Z,1007.25
2022-11-02T02:40:25.314Z,1007.22
2022-11-02T02:41:25.058Z,1007.25
2022-11-02T02:42:25.060Z,1007.22
2022-11-02T02:43:25.072Z,1007.24
2022-11-02T02:44:25.261Z,1007.18
2022-11-02T02:45:25.289Z,1007.16
2022-11-02T02:46:25.002Z,1007.15
2022-11-02T02:47:25.007Z,1007.16
2022-11-02T02:48:32.231Z,1007.12
2022-11-02T02:49:25.991Z,1007.11
2022-11-02T02:50:46.209Z,1007.09
2022-11-02T02:51:28.001Z,1007.10
2022-11-02T02:52:25.202Z,1007.04
2022-11-02T02:53:25.160Z,1007.06
2022-11-02T02:54:24.930Z,1007.03
2022-11-02T02:55:24.922Z,1007.00
2022-11-02T02:56:24.910Z,1007.02
2022-11-02T02:57:24.923Z,1007.04
2022-11-02T02:58:26.109Z,1007.02
2022-11-02T02:59:27.916Z,1007.02
2022-11-02T03:00:27.899Z,1006.99
2022-11-02T03:01:25.167Z,1006.97
2022-11-02T03:02:24.971Z,1006.97
2022-11-02T03:03:26.084Z,1006.96
2022-11-02T03:04:24.854Z,1006.98
2022-11-02T03:05:25.825Z,1006.97
2022-11-02T03:06:25.822Z,1006.97
2022-11-02T03:07:27.272Z,1006.94
2022-11-02T03:08:25.779Z,1006.96
2022-11-02T03:09:24.780Z,1006.93
2022-11-02T03:10:27.804Z,1006.92
2022-11-02T03:11:27.776Z,1006.94
2022-11-02T03:12:27.763Z,1006.91
2022-11-02T03:13:24.982Z,1006.92
2022-11-02T03:14:25.747Z,1006.92
2022-11-02T03:15:27.764Z,1006.89
2022-11-02T03:16:25.714Z,1006.95
2022-11-02T03:17:52.943Z,1006.93
2022-11-02T03:18:24.934Z,1006.93
2022-11-02T03:19:24.885Z,1006.95
2022-11-02T03:20:25.715Z,1006.96
2022-11-02T03:21:31.815Z,1007.00
2022-11-02T03:22:24.633Z,1007.02
2022-11-02T03:23:24.877Z,1007.03
2022-11-02T03:24:25.644Z,1007.02
2022-11-02T03:25:31.690Z,1007.02
2022-11-02T03:26:25.618Z,1007.02
2022-11-02T03:27:27.626Z,1007.02
2022-11-02T03:28:24.812Z,1007.01
2022-11-02T03:29:24.802Z,1007.05
2022-11-02T03:30:39.910Z,1007.05
2022-11-02T03:31:27.559Z,1007.07
2022-11-02T03:32:24.538Z,1007.06
2022-11-02T03:33:31.946Z,1007.08
2022-11-02T03:34:24.542Z,1007.06
2022-11-02T03:35:24.487Z,1007.06
2022-11-02T03:36:24.706Z,1007.10
2022-11-02T03:37:27.754Z,1007.14
2022-11-02T03:38:24.701Z,1007.04
2022-11-02T03:39:24.727Z,1007.11
2022-11-02T03:40:39.725Z,1007.08
2022-11-02T03:41:25.669Z,1007.08
2022-11-02T03:42:25.473Z,1007.09
2022-11-02T03:43:24.626Z,1007.10
2022-11-02T03:44:25.427Z,1007.05
2022-11-02T03:45:24.395Z,1007.09
2022-11-02T03:46:31.446Z,1007.13
2022-11-02T03:47:24.388Z,1007.09
2022-11-02T03:48:24.597Z,1007.04
2022-11-02T03:49:24.401Z,1007.01
2022-11-02T03:50:24.348Z,1007.00
2022-11-02T03:51:24.558Z,1007.02
2022-11-02T03:52:25.569Z,1007.07
2022-11-02T03:53:25.566Z,1007.02
2022-11-02T03:54:24.325Z,1007.03
2022-11-02T03:55:24.550Z,1007.03
2022-11-02T03:56:48.306Z,1007.10
2022-11-02T03:57:25.522Z,1007.08
2022-11-02T03:58:25.531Z,1007.10
2022-11-02T03:59:24.267Z,1007.08
2022-11-02T04:00:25.492Z,1007.09
2022-11-02T04:01:24.533Z,1007.06
2022-11-02T04:02:24.549Z,1007.15
2022-11-02T04:03:25.241Z,1007.12
2022-11-02T04:04:24.222Z,1007.09
2022-11-02T04:05:24.195Z,1007.11
2022-11-02T04:06:24.172Z,1007.16
2022-11-02T04:07:27.198Z,1007.10
2022-11-02T04:08:25.390Z,1007.15
2022-11-02T04:09:24.166Z,1007.15
2022-11-02T04:10:31.662Z,1007.15
2022-11-02T04:11:24.133Z,1007.16
2022-11-02T04:12:24.335Z,1007.15
2022-11-02T04:13:24.097Z,1007.20
2022-11-02T04:14:24.091Z,1007.23
2022-11-02T04:15:24.122Z,1007.20
2022-11-02T04:16:26.757Z,1007.19
2022-11-02T04:17:27.153Z,1007.27
2022-11-02T04:18:25.308Z,1007.29
2022-11-02T04:19:27.071Z,1007.21
2022-11-02T04:20:24.272Z,1007.23
2022-11-02T04:21:24.253Z,1007.29
2022-11-02T04:22:24.223Z,1007.32
2022-11-02T04:23:24.235Z,1007.35
2022-11-02T04:24:27.240Z,1007.31
2022-11-02T04:25:24.202Z,1007.34
2022-11-02T04:26:23.971Z,1007.39
2022-11-02T04:27:23.950Z,1007.43
2022-11-02T04:28:27.001Z,1007.47
2022-11-02T04:29:31.131Z,1007.50
2022-11-02T04:30:24.934Z,1007.51
2022-11-02T04:31:23.940Z,1007.52
2022-11-02T04:32:24.901Z,1007.54
2022-11-02T04:33:30.988Z,1007.53
2022-11-02T04:34:24.915Z,1007.56
2022-11-02T04:35:24.099Z,1007.55
2022-11-02T04:36:24.097Z,1007.56
2022-11-02T04:37:24.120Z,1007.52
2022-11-02T04:38:26.853Z,1007.57
2022-11-02T04:39:25.096Z,1007.54
2022-11-02T04:40:26.863Z,1007.62
2022-11-02T04:41:24.065Z,1007.60
2022-11-02T04:42:39.313Z,1007.62
2022-11-02T04:43:25.067Z,1007.62
2022-11-02T04:44:28.852Z,1007.64
2022-11-02T04:45:23.988Z,1007.64
2022-11-02T04:46:27.027Z,1007.62
2022-11-02T04:47:23.778Z,1007.54
2022-11-02T04:48:24.727Z,1007.57
2022-11-02T04:49:23.973Z,1007.55
2022-11-02T04:50:26.769Z,1007.58
2022-11-02T04:51:23.696Z,1007.57
2022-11-02T04:52:23.701Z,1007.53
2022-11-02T04:53:23.678Z,1007.53
2022-11-02T04:54:24.718Z,1007.57
2022-11-02T04:55:26.903Z,1007.56
2022-11-02T04:56:31.068Z,1007.54
2022-11-02T04:57:23.875Z,1007.53
2022-11-02T04:58:23.631Z,1007.56
2022-11-02T04:59:24.853Z,1007.50
2022-11-02T05:00:24.879Z,1007.49
2022-11-02T05:01:30.956Z,1007.43
2022-11-02T05:02:23.976Z,1007.49
2022-11-02T05:03:23.805Z,1007.47
2022-11-02T05:04:23.587Z,1007.45
2022-11-02T05:05:23.581Z,1007.46
2022-11-02T05:06:23.595Z,1007.48
2022-11-02T05:07:26.581Z,1007.47
2022-11-02T05:08:23.746Z,1007.53
2022-11-02T05:09:23.531Z,1007.54
2022-11-02T05:10:26.527Z,1007.52
2022-11-02T05:11:24.772Z,1007.53
2022-11-02T05:12:29.350Z,1007.49
2022-11-02T05:13:23.496Z,1007.49
2022-11-02T05:14:23.697Z,1007.49
2022-11-02T05:15:23.696Z,1007.51
2022-11-02T05:16:24.462Z,1007.51
2022-11-02T05:17:23.838Z,1007.48
2022-11-02T05:18:23.446Z,1007.50
2022-11-02T05:19:23.434Z,1007.47
2022-11-02T05:20:26.423Z,1007.43
2022-11-02T05:21:24.647Z,1007.50
2022-11-02T05:22:23.409Z,1007.48
2022-11-02T05:23:38.869Z,1007.51
2022-11-02T05:24:23.415Z,1007.46
2022-11-02T05:25:23.560Z,1007.52
2022-11-02T05:26:24.581Z,1007.55
2022-11-02T05:27:24.341Z,1007.57
2022-11-02T05:28:23.334Z,1007.56
2022-11-02T05:29:23.560Z,1007.57
2022-11-02T05:30:30.551Z,1007.61
2022-11-02T05:31:23.271Z,1007.68
2022-11-02T05:32:23.280Z,1007.66
2022-11-02T05:33:30.934Z,1007.72
2022-11-02T05:34:24.519Z,1007.77
2022-11-02T05:35:26.278Z,1007.75
2022-11-02T05:36:26.248Z,1007.72
2022-11-02T05:37:23.442Z,1007.76
2022-11-02T05:38:23.438Z,1007.76
2022-11-02T05:39:24.208Z,1007.75
2022-11-02T05:40:24.413Z,1007.76
2022-11-02T05:41:30.309Z,1007.79
2022-11-02T05:42:23.411Z,1007.76
2022-11-02T05:43:23.149Z,1007.77
2022-11-02T05:44:23.150Z,1007.77
2022-11-02T05:45:24.602Z,1007.82
2022-11-02T05:46:23.356Z,1007.80
2022-11-02T05:47:23.390Z,1007.80
2022-11-02T05:48:24.342Z,1007.76
2022-11-02T05:49:38.496Z,1007.84
2022-11-02T05:50:23.311Z,1007.81
2022-11-02T05:51:23.073Z,1007.75
2022-11-02T05:52:23.090Z,1007.86
2022-11-02T05:53:26.302Z,1007.80
2022-11-02T05:54:23.041Z,1007.80
2022-11-02T05:55:24.054Z,1007.75
2022-11-02T05:56:25.173Z,1007.77
2022-11-02T05:57:23.258Z,1007.76
2022-11-02T05:58:23.021Z,1007.76
2022-11-02T05:59:23.997Z,1007.75
2022-11-02T06:00:22.998Z,1007.80
2022-11-02T06:01:24.062Z,1007.75
2022-11-02T06:02:25.383Z,1007.79
2022-11-02T06:03:23.183Z,1007.79
2022-11-02T06:04:26.011Z,1007.82
2022-11-02T06:05:22.955Z,1007.85
2022-11-02T06:06:24.180Z,1007.87
2022-11-02T06:07:23.914Z,1007.86
2022-11-02T06:08:22.932Z,1007.94
2022-11-02T06:09:30.134Z,1007.92
2022-11-02T06:10:26.148Z,1007.96
2022-11-02T06:11:22.888Z,1008.00
2022-11-02T06:12:22.841Z,1008.00
2022-11-02T06:13:23.097Z,1008.03
2022-11-02T06:14:25.875Z,1008.07
2022-11-02T06:15:22.820Z,1008.10
2022-11-02T06:16:23.568Z,1008.07
2022-11-02T06:17:23.006Z,1008.11
2022-11-02T06:18:23.041Z,1008.13
2022-11-02T06:19:22.999Z,1008.17
2022-11-02T06:20:22.789Z,1008.12
2022-11-02T06:21:22.765Z,1008.19
2022-11-02T06:22:23.755Z,1008.18
2022-11-02T06:23:22.725Z,1008.20
2022-11-02T06:24:22.764Z,1008.22
2022-11-02T06:25:29.865Z,1008.24
2022-11-02T06:26:25.740Z,1008.25
2022-11-02T06:27:22.674Z,1008.28
2022-11-02T06:28:22.935Z,1008.27
2022-11-02T06:29:22.921Z,1008.25
2022-11-02T06:30:22.907Z,1008.26
2022-11-02T06:31:29.778Z,1008.31
2022-11-02T06:32:22.642Z,1008.33
2022-11-02T06:33:22.883Z,1008.34
2022-11-02T06:34:22.627Z,1008.29
2022-11-02T06:35:29.665Z,1008.31
2022-11-02T06:36:22.591Z,1008.33
2022-11-02T06:37:22.824Z,1008.38
2022-11-02T06:38:22.833Z,1008.37
2022-11-02T06:39:25.634Z,1008.37
2022-11-02T06:40:25.688Z,1008.42
2022-11-02T06:41:23.573Z,1008.42
2022-11-02T06:42:23.571Z,1008.42
2022-11-02T06:43:29.651Z,1008.46
2022-11-02T06:44:29.822Z,1008.45
2022-11-02T06:45:22.764Z,1008.45
2022-11-02T06:46:22.499Z,1008.42
2022-11-02T06:47:25.510Z,1008.46
2022-11-02T06:48:23.512Z,1008.44
2022-11-02T06:49:22.473Z,1008.48
2022-11-02T06:50:25.493Z,1008.49
2022-11-02T06:51:22.451Z,1008.47
2022-11-02T06:52:22.443Z,1008.50
2022-11-02T06:53:22.695Z,1008.50
2022-11-02T06:54:22.649Z,1008.57
2022-11-02T06:55:22.399Z,1008.60
2022-11-02T06:56:22.416Z,1008.62
2022-11-02T06:57:23.389Z,1008.57
2022-11-02T06:58:29.496Z,1008.63
2022-11-02T06:59:23.589Z,1008.59
2022-11-02T07:00:25.385Z,1008.67
2022-11-02T07:01:22.462Z,1008.68
2022-11-02T07:02:22.361Z,1008.68
2022-11-02T07:03:43.534Z,1008.71
2022-11-02T07:04:22.318Z,1008.73
2022-11-02T07:05:23.296Z,1008.75
2022-11-02T07:06:22.273Z,1008.77
2022-11-02T07:07:22.571Z,1008.78
2022-11-02T07:08:25.507Z,1008.78
2022-11-02T07:09:23.494Z,1008.78
2022-11-02T07:10:25.523Z,1008.80
2022-11-02T07:11:23.462Z,1008.82
2022-11-02T07:12:23.283Z,1008.83
2022-11-02T07:13:23.226Z,1008.83
2022-11-02T07:14:29.698Z,1008.81
2022-11-02T07:15:25.451Z,1008.80
2022-11-02T07:16:22.183Z,1008.83
2022-11-02T07:17:31.049Z,1008.87
2022-11-02T07:18:23.403Z,1008.87
2022-11-02T07:19:22.199Z,1008.86
2022-11-02T07:20:22.143Z,1008.91
2022-11-02T07:21:23.117Z,1008.89
2022-11-02T07:22:37.382Z,1008.89
2022-11-02T07:23:22.336Z,1008.86
2022-11-02T07:24:37.457Z,1008.86
2022-11-02T07:25:23.325Z,1008.87
2022-11-02T07:26:23.332Z,1008.88
2022-11-02T07:27:23.096Z,1008.88
2022-11-02T07:28:22.344Z,1008.93
2022-11-02T07:29:29.524Z,1008.94
2022-11-02T07:30:22.026Z,1008.97
2022-11-02T07:31:25.069Z,1009.00
2022-11-02T07:32:22.245Z,1008.99
2022-11-02T07:33:22.253Z,1008.99
2022-11-02T07:34:22.236Z,1008.98
2022-11-02T07:35:22.211Z,1009.00
2022-11-02T07:36:21.956Z,1008.94
2022-11-02T07:37:21.947Z,1008.96
2022-11-02T07:38:24.990Z,1008.93
2022-11-02T07:39:21.941Z,1008.94
2022-11-02T07:40:21.938Z,1008.98
2022-11-02T07:41:21.941Z,1009.01
2022-11-02T07:42:21.892Z,1009.02
2022-11-02T07:43:21.890Z,1009.06
2022-11-02T07:44:21.887Z,1009.07
2022-11-02T07:45:21.883Z,1009.04
2022-11-02T07:46:21.857Z,1009.03
2022-11-02T07:47:21.876Z,1009.10
2022-11-02T07:48:21.827Z,1009.12
2022-11-02T07:49:21.870Z,1009.18
2022-11-02T07:50:21.873Z,1009.20
2022-11-02T07:51:21.844Z,1009.20
2022-11-02T07:52:21.795Z,1009.24
2022-11-02T07:53:21.781Z,1009.24
2022-11-02T07:54:21.790Z,1009.26
2022-11-02T07:55:21.832Z,1009.29
2022-11-02T07:56:21.777Z,1009.31
2022-11-02T07:57:21.743Z,1009.34
2022-11-02T07:58:21.720Z,1009.38
2022-11-02T07:59:21.751Z,1009.35
2022-11-02T08:00:21.734Z,1009.43
2022-11-02T08:01:21.773Z,1009.42
2022-11-02T08:02:21.722Z,1009.45
2022-11-02T08:03:21.725Z,1009.41
2022-11-02T08:05:21.674Z,1009.48
2022-11-02T08:06:21.660Z,1009.41
2022-11-02T08:07:21.647Z,1009.45
2022-11-02T08:08:21.661Z,1009.39
2022-11-02T08:09:21.628Z,1009.37
2022-11-02T08:10:21.600Z,1009.36
2022-11-02T08:11:21.632Z,1009.33
2022-11-02T08:12:21.624Z,1009.36
2022-11-02T08:13:21.649Z,1009.42
2022-11-02T08:14:21.561Z,1009.42
2022-11-02T08:15:21.568Z,1009.46
2022-11-02T08:16:21.558Z,1009.41
2022-11-02T08:17:21.597Z,1009.42
2022-11-02T08:18:21.515Z,1009.45
2022-11-02T08:19:21.512Z,1009.51
2022-11-02T08:20:21.519Z,1009.53
2022-11-02T08:21:21.571Z,1009.59
2022-11-02T08:22:21.488Z,1009.59
2022-11-02T08:23:21.508Z,1009.60
2022-11-02T08:24:21.461Z,1009.61
2022-11-02T08:25:21.436Z,1009.60
2022-11-02T08:26:21.472Z,1009.59
2022-11-02T08:27:21.488Z,1009.57
2022-11-02T08:28:21.417Z,1009.56
2022-11-02T08:29:21.411Z,1009.54
2022-11-02T08:30:21.429Z,1009.52
2022-11-02T08:31:21.399Z,1009.54
2022-11-02T08:32:21.387Z,1009.54
2022-11-02T08:33:21.370Z,1009.57
2022-11-02T08:34:21.349Z,1009.56
2022-11-02T08:35:21.368Z,1009.55
2022-11-02T08:36:21.335Z,1009.59
2022-11-02T08:37:21.305Z,1009.61
2022-11-02T08:38:21.313Z,1009.60
2022-11-02T08:39:21.351Z,1009.58
2022-11-02T08:40:21.288Z,1009.62
2022-11-02T08:41:21.279Z,1009.62
2022-11-02T08:42:21.303Z,1009.64
2022-11-02T08:43:21.290Z,1009.60
2022-11-02T08:44:21.275Z,1009.64
2022-11-02T08:45:21.231Z,1009.64
2022-11-02T08:46:21.243Z,1009.66
2022-11-02T08:47:21.259Z,1009.62
2022-11-02T08:48:21.217Z,1009.64
2022-11-02T08:49:21.230Z,1009.63
2022-11-02T08:50:21.186Z,1009.63
2022-11-02T08:51:21.169Z,1009.64
2022-11-02T08:52:21.172Z,1009.59
2022-11-02T08:53:21.168Z,1009.60
2022-11-02T08:54:21.223Z,1009.62
2022-11-02T08:55:21.146Z,1009.65
2022-11-02T08:56:21.119Z,1009.64
2022-11-02T08:57:21.142Z,1009.63
2022-11-02T08:58:21.087Z,1009.63
2022-11-02T08:59:21.143Z,1009.56
2022-11-02T09:00:21.303Z,1009.62
2022-11-02T09:01:21.143Z,1009.65
2022-11-02T09:02:21.180Z,1009.62
2022-11-02T09:03:26.176Z,1009.59
2022-11-02T09:04:22.083Z,1009.60
2022-11-02T09:05:21.023Z,1009.54
2022-11-02T09:06:21.036Z,1009.54
2022-11-02T09:07:20.997Z,1009.59
2022-11-02T09:08:21.027Z,1009.60
2022-11-02T09:09:21.024Z,1009.63
2022-11-02T09:10:21.017Z,1009.64
2022-11-02T09:11:20.968Z,1009.66
2022-11-02T09:12:20.953Z,1009.61
2022-11-02T09:13:20.951Z,1009.73
2022-11-02T09:14:21.007Z,1009.63
2022-11-02T09:15:20.953Z,1009.70
2022-11-02T09:16:20.921Z,1009.69
2022-11-02T09:17:20.933Z,1009.69
2022-11-02T09:18:20.920Z,1009.70
2022-11-02T09:19:20.869Z,1009.70
2022-11-02T09:20:20.895Z,1009.69
2022-11-02T09:21:20.890Z,1009.70
2022-11-02T09:22:20.877Z,1009.69
2022-11-02T09:23:20.857Z,1009.66
2022-11-02T09:24:20.847Z,1009.70
2022-11-02T09:25:20.837Z,1009.66
2022-11-02T09:26:20.828Z,1009.64
2022-11-02T09:27:20.800Z,1009.70
2022-11-02T09:28:20.790Z,1009.63
2022-11-02T09:29:20.862Z,1009.69
2022-11-02T09:30:20.782Z,1009.68
2022-11-02T09:31:20.763Z,1009.69
2022-11-02T09:32:20.743Z,1009.68
2022-11-02T09:33:20.765Z,1009.73
2022-11-02T09:34:20.757Z,1009.74
2022-11-02T09:35:20.716Z,1009.75
2022-11-02T09:36:20.719Z,1009.73
2022-11-02T09:37:20.683Z,1009.75
2022-11-02T09:38:20.670Z,1009.73
2022-11-02T09:39:20.675Z,1009.82
2022-11-02T09:40:20.680Z,1009.79
2022-11-02T09:41:20.682Z,1009.80
2022-11-02T09:42:20.662Z,1009.76
2022-11-02T09:43:20.625Z,1009.80
2022-11-02T09:44:20.640Z,1009.82
2022-11-02T09:45:20.634Z,1009.82
2022-11-02T09:46:20.642Z,1009.79
2022-11-02T09:48:27.854Z,1009.81
2022-11-02T09:49:21.587Z,1009.82
2022-11-02T09:50:20.591Z,1009.86
2022-11-02T09:51:20.559Z,1009.89
2022-11-02T09:52:28.189Z,1009.84
2022-11-02T09:53:20.504Z,1009.89
2022-11-02T09:54:20.556Z,1009.86
2022-11-02T09:55:20.483Z,1009.86
2022-11-02T09:56:20.489Z,1009.90
2022-11-02T09:57:20.502Z,1009.86
2022-11-02T09:58:20.466Z,1009.85
2022-11-02T09:59:20.482Z,1009.86
2022-11-02T10:00:20.858Z,1009.88
2022-11-02T10:01:20.437Z,1009.85
2022-11-02T10:02:20.464Z,1009.89
2022-11-02T10:03:27.423Z,1009.88
2022-11-02T10:04:20.402Z,1009.81
2022-11-02T10:05:20.400Z,1009.88
2022-11-02T10:06:20.355Z,1009.85
2022-11-02T10:07:20.377Z,1009.91
2022-11-02T10:08:20.348Z,1009.91
2022-11-02T10:09:20.341Z,1009.90
2022-11-02T10:10:20.392Z,1009.91
2022-11-02T10:11:20.316Z,1009.91
2022-11-02T10:12:20.359Z,1009.92
2022-11-02T10:13:20.306Z,1009.92
2022-11-02T10:14:20.287Z,1009.88
2022-11-02T10:15:20.274Z,1009.90
2022-11-02T10:16:20.277Z,1009.85
2022-11-02T10:17:20.271Z,1009.87
2022-11-02T10:18:20.260Z,1009.88
2022-11-02T10:19:20.246Z,1009.89
2022-11-02T10:20:20.288Z,1009.84
2022-11-02T10:21:20.222Z,1009.83
2022-11-02T10:22:20.237Z,1009.84
2022-11-02T10:23:20.230Z,1009.87
2022-11-02T10:24:20.204Z,1009.86
2022-11-02T10:25:20.203Z,1009.86
2022-11-02T10:26:20.161Z,1009.82
2022-11-02T10:27:20.159Z,1009.91
2022-11-02T10:28:20.261Z,1009.93
2022-11-02T10:29:20.130Z,1009.89
2022-11-02T10:30:20.209Z,1009.77
2022-11-02T10:31:20.097Z,1009.83
2022-11-02T10:32:20.127Z,1009.87
2022-11-02T10:33:20.133Z,1009.86
2022-11-02T10:34:20.102Z,1009.90
2022-11-02T10:35:37.190Z,1009.92
2022-11-02T10:36:21.326Z,1009.93
2022-11-02T10:37:20.143Z,1009.96
2022-11-02T10:38:20.068Z,1010.00
2022-11-02T10:39:20.069Z,1009.99
2022-11-02T10:40:20.083Z,1010.02
2022-11-02T10:41:20.024Z,1010.05
2022-11-02T10:42:20.029Z,1010.04
2022-11-02T10:43:19.996Z,1010.00
2022-11-02T10:44:20.022Z,1010.13
2022-11-02T10:45:19.969Z,1010.08
2022-11-02T10:46:19.972Z,1010.08
2022-11-02T10:47:19.958Z,1010.06
2022-11-02T10:48:19.953Z,1010.03
2022-11-02T10:49:19.950Z,1010.06
2022-11-02T10:50:19.995Z,1010.04
2022-11-02T10:51:19.896Z,1010.08
2022-11-02T10:52:19.900Z,1010.15
2022-11-02T10:53:40.139Z,1010.15
2022-11-02T10:54:25.351Z,1010.11
2022-11-02T10:55:20.891Z,1010.19
2022-11-02T10:56:19.862Z,1010.12
2022-11-02T10:57:19.839Z,1010.05
2022-11-02T10:58:19.839Z,1010.08
2022-11-02T10:59:19.849Z,1010.05
2022-11-02T11:00:19.820Z,1010.08
2022-11-02T11:01:19.932Z,1010.14
2022-11-02T11:02:19.847Z,1010.13
2022-11-02T11:03:20.006Z,1010.11
2022-11-02T11:04:19.788Z,1010.16
2022-11-02T11:05:19.755Z,1010.14
2022-11-02T11:06:19.786Z,1010.14
2022-11-02T11:07:19.753Z,1010.13
2022-11-02T11:08:19.727Z,1010.07
2022-11-02T11:09:19.719Z,1010.09
2022-11-02T11:10:19.723Z,1010.10
2022-11-02T11:11:19.758Z,1010.06
2022-11-02T11:12:19.729Z,1010.12
2022-11-02T11:16:24.200Z,1010.02
2022-11-02T11:19:40.002Z,1009.92
2022-11-02T11:20:20.864Z,1009.93
2022-11-02T11:21:19.638Z,1009.98
2022-11-02T11:22:19.597Z,1009.94
2022-11-02T11:23:19.786Z,1009.98
2022-11-02T11:24:19.590Z,1009.90
2022-11-02T11:25:24.353Z,1009.88
2022-11-02T11:26:20.582Z,1009.86
2022-11-02T11:27:20.558Z,1009.89
2022-11-02T11:28:19.519Z,1009.91
2022-11-02T11:29:19.547Z,1009.84
2022-11-02T11:30:33.531Z,1009.84
2022-11-02T11:31:20.485Z,1009.82
2022-11-02T11:32:19.500Z,1009.90
2022-11-02T11:33:19.465Z,1009.90
2022-11-02T11:34:19.501Z,1009.88
2022-11-02T11:35:19.679Z,1009.91
2022-11-02T11:36:19.461Z,1009.88
2022-11-02T11:37:19.436Z,1009.89
2022-11-02T11:38:19.430Z,1009.89
2022-11-02T11:39:19.403Z,1009.86
2022-11-02T11:40:19.394Z,1009.82
2022-11-02T11:41:19.360Z,1009.86
2022-11-02T11:42:19.632Z,1009.78
2022-11-02T11:43:22.657Z,1009.73
2022-11-02T11:44:19.424Z,1009.79
2022-11-02T11:45:19.336Z,1009.77
2022-11-02T11:46:19.352Z,1009.70
2022-11-02T11:47:19.404Z,1009.71
2022-11-02T11:48:19.323Z,1009.71
2022-11-02T11:49:19.295Z,1009.61
2022-11-02T11:50:29.963Z,1009.71
2022-11-02T11:51:25.115Z,1009.68
2022-11-02T11:52:20.300Z,1009.70
2022-11-02T11:53:19.258Z,1009.73
2022-11-02T11:54:19.234Z,1009.71
2022-11-02T11:55:19.222Z,1009.71
2022-11-02T11:56:19.221Z,1009.71
2022-11-02T11:57:19.233Z,1009.74
2022-11-02T11:58:19.197Z,1009.72
2022-11-02T11:59:19.198Z,1009.77
2022-11-02T12:00:19.180Z,1009.71
2022-11-02T12:01:19.263Z,1009.73
2022-11-02T12:02:19.397Z,1009.75
2022-11-02T12:03:19.234Z,1009.72
2022-11-02T12:04:19.177Z,1009.73
2022-11-02T12:05:19.105Z,1009.87
2022-11-02T12:06:19.106Z,1009.72
2022-11-02T12:07:19.118Z,1009.81
2022-11-02T12:08:19.117Z,1009.78
2022-11-02T12:09:19.114Z,1009.77
2022-11-02T12:10:19.083Z,1009.76
2022-11-02T12:11:19.443Z,1009.75
2022-11-02T12:12:19.048Z,1009.72